sensor_id;sensor_type;location;lat;lon;timestamp;temperature;humidity
13998;DHT22;7074;51.508;7.018;2023-07-09T00:00:47;26.20;99.90
13998;DHT22;7074;51.508;7.018;2023-07-09T00:03:15;26.20;99.90
13998;DHT22;7074;51.508;7.018;2023-07-09T00:05:42;26.10;99.90
13998;DHT22;7074;51.508;7.018;2023-07-09T00:08:21;26.10;99.90
13998;DHT22;7074;51.508;7.018;2023-07-09T00:10:52;26.00;99.90
13998;DHT22;7074;51.508;7.018;2023-07-09T00:13:21;26.00;99.90
13998;DHT22;7074;51.508;7.018;2023-07-09T00:15:53;26.00;99.90
13998;DHT22;7074;51.508;7.018;2023-07-09T00:18:21;26.00;99.90
13998;DHT22;7074;51.508;7.018;2023-07-09T00:20:48;25.90;99.90
13998;DHT22;7074;51.508;7.018;2023-07-09T00:23:15;25.80;99.90
13998;DHT22;7074;51.508;7.018;2023-07-09T00:25:45;25.70;99.90
13998;DHT22;7074;51.508;7.018;2023-07-09T00:28:13;25.70;99.90
13998;DHT22;7074;51.508;7.018;2023-07-09T00:30:43;25.70;99.90
13998;DHT22;7074;51.508;7.018;2023-07-09T00:33:11;25.70;99.90
13998;DHT22;7074;51.508;7.018;2023-07-09T00:35:41;25.70;99.90
13998;DHT22;7074;51.508;7.018;2023-07-09T00:38:14;25.70;99.90
13998;DHT22;7074;51.508;7.018;2023-07-09T00:40:47;25.60;99.90
13998;DHT22;7074;51.508;7.018;2023-07-09T00:43:16;25.50;99.90
13998;DHT22;7074;51.508;7.018;2023-07-09T00:46:07;25.50;99.90
13998;DHT22;7074;51.508;7.018;2023-07-09T00:48:32;25.40;99.90
13998;DHT22;7074;51.508;7.018;2023-07-09T00:50:59;25.20;99.90
13998;DHT22;7074;51.508;7.018;2023-07-09T00:53:29;25.20;99.90
13998;DHT22;7074;51.508;7.018;2023-07-09T00:56:02;25.30;99.90
13998;DHT22;7074;51.508;7.018;2023-07-09T00:58:31;25.30;99.90
13998;DHT22;7074;51.508;7.018;2023-07-09T01:01:04;25.30;99.90
13998;DHT22;7074;51.508;7.018;2023-07-09T01:03:35;25.30;99.90
13998;DHT22;7074;51.508;7.018;2023-07-09T01:06:03;25.20;99.90
13998;DHT22;7074;51.508;7.018;2023-07-09T01:08:33;25.10;99.90
13998;DHT22;7074;51.508;7.018;2023-07-09T01:11:01;25.10;99.90
13998;DHT22;7074;51.508;7.018;2023-07-09T01:13:30;25.10;99.90
13998;DHT22;7074;51.508;7.018;2023-07-09T01:16:02;25.10;99.90
13998;DHT22;7074;51.508;7.018;2023-07-09T01:18:29;25.10;99.90
13998;DHT22;7074;51.508;7.018;2023-07-09T01:21:07;25.00;99.90
13998;DHT22;7074;51.508;7.018;2023-07-09T01:23:41;25.00;99.90
13998;DHT22;7074;51.508;7.018;2023-07-09T01:26:10;24.90;99.90
13998;DHT22;7074;51.508;7.018;2023-07-09T01:28:39;24.80;99.90
13998;DHT22;7074;51.508;7.018;2023-07-09T01:31:08;24.80;99.90
13998;DHT22;7074;51.508;7.018;2023-07-09T01:33:36;24.70;99.90
13998;DHT22;7074;51.508;7.018;2023-07-09T01:36:07;24.60;99.90
13998;DHT22;7074;51.508;7.018;2023-07-09T01:38:34;24.50;99.90
13998;DHT22;7074;51.508;7.018;2023-07-09T01:41:02;24.50;99.90
13998;DHT22;7074;51.508;7.018;2023-07-09T01:43:30;24.50;99.90
13998;DHT22;7074;51.508;7.018;2023-07-09T01:45:58;24.50;99.90
13998;DHT22;7074;51.508;7.018;2023-07-09T01:48:26;24.50;99.90
13998;DHT22;7074;51.508;7.018;2023-07-09T01:50:54;24.50;99.90
13998;DHT22;7074;51.508;7.018;2023-07-09T01:53:26;24.60;99.90
13998;DHT22;7074;51.508;7.018;2023-07-09T01:55:56;24.60;99.90
13998;DHT22;7074;51.508;7.018;2023-07-09T01:58:24;24.50;99.90
13998;DHT22;7074;51.508;7.018;2023-07-09T02:00:51;24.40;99.90
13998;DHT22;7074;51.508;7.018;2023-07-09T02:03:18;24.30;99.90
13998;DHT22;7074;51.508;7.018;2023-07-09T02:05:46;24.30;99.90
13998;DHT22;7074;51.508;7.018;2023-07-09T02:08:14;24.40;99.90
13998;DHT22;7074;51.508;7.018;2023-07-09T02:10:47;24.20;99.90
13998;DHT22;7074;51.508;7.018;2023-07-09T02:13:15;24.20;99.90
13998;DHT22;7074;51.508;7.018;2023-07-09T02:15:43;24.20;99.90
13998;DHT22;7074;51.508;7.018;2023-07-09T02:18:11;24.20;99.90
13998;DHT22;7074;51.508;7.018;2023-07-09T02:20:39;24.20;99.90
13998;DHT22;7074;51.508;7.018;2023-07-09T02:23:06;24.10;99.90
13998;DHT22;7074;51.508;7.018;2023-07-09T02:25:34;24.10;99.90
13998;DHT22;7074;51.508;7.018;2023-07-09T02:28:02;24.00;99.90
13998;DHT22;7074;51.508;7.018;2023-07-09T02:30:30;24.00;99.90
13998;DHT22;7074;51.508;7.018;2023-07-09T02:32:57;23.90;99.90
13998;DHT22;7074;51.508;7.018;2023-07-09T02:35:24;24.00;99.90
13998;DHT22;7074;51.508;7.018;2023-07-09T02:37:51;23.90;99.90
13998;DHT22;7074;51.508;7.018;2023-07-09T02:40:19;24.00;99.90
13998;DHT22;7074;51.508;7.018;2023-07-09T02:42:46;23.90;99.90
13998;DHT22;7074;51.508;7.018;2023-07-09T02:45:17;23.90;99.90
13998;DHT22;7074;51.508;7.018;2023-07-09T02:47:46;23.80;99.90
13998;DHT22;7074;51.508;7.018;2023-07-09T02:50:13;23.80;99.90
13998;DHT22;7074;51.508;7.018;2023-07-09T02:52:40;23.80;99.90
13998;DHT22;7074;51.508;7.018;2023-07-09T02:55:08;23.80;99.90
13998;DHT22;7074;51.508;7.018;2023-07-09T02:57:36;23.80;99.90
13998;DHT22;7074;51.508;7.018;2023-07-09T03:00:03;23.70;99.90
13998;DHT22;7074;51.508;7.018;2023-07-09T03:02:35;23.70;99.90
13998;DHT22;7074;51.508;7.018;2023-07-09T03:05:02;23.60;99.90
13998;DHT22;7074;51.508;7.018;2023-07-09T03:07:29;23.60;99.90
13998;DHT22;7074;51.508;7.018;2023-07-09T03:09:56;23.60;99.90
13998;DHT22;7074;51.508;7.018;2023-07-09T03:12:24;23.50;99.90
13998;DHT22;7074;51.508;7.018;2023-07-09T03:14:51;23.50;99.90
13998;DHT22;7074;51.508;7.018;2023-07-09T03:17:18;23.40;99.90
13998;DHT22;7074;51.508;7.018;2023-07-09T03:19:47;23.40;99.90
13998;DHT22;7074;51.508;7.018;2023-07-09T03:22:14;23.30;99.90
13998;DHT22;7074;51.508;7.018;2023-07-09T03:24:42;23.30;99.90
13998;DHT22;7074;51.508;7.018;2023-07-09T03:27:10;23.30;99.90
13998;DHT22;7074;51.508;7.018;2023-07-09T03:29:37;23.40;99.90
13998;DHT22;7074;51.508;7.018;2023-07-09T03:32:05;23.30;99.90
13998;DHT22;7074;51.508;7.018;2023-07-09T03:34:32;23.30;99.90
13998;DHT22;7074;51.508;7.018;2023-07-09T03:37:01;23.40;99.90
13998;DHT22;7074;51.508;7.018;2023-07-09T03:39:29;23.30;99.90
13998;DHT22;7074;51.508;7.018;2023-07-09T03:41:56;23.40;99.90
13998;DHT22;7074;51.508;7.018;2023-07-09T03:44:24;23.20;99.90
13998;DHT22;7074;51.508;7.018;2023-07-09T03:46:52;23.30;99.90
13998;DHT22;7074;51.508;7.018;2023-07-09T03:49:19;23.20;99.90
13998;DHT22;7074;51.508;7.018;2023-07-09T03:51:46;23.20;99.90
13998;DHT22;7074;51.508;7.018;2023-07-09T03:54:15;23.40;99.90
13998;DHT22;7074;51.508;7.018;2023-07-09T03:56:42;23.20;99.90
13998;DHT22;7074;51.508;7.018;2023-07-09T03:59:10;23.20;99.90
13998;DHT22;7074;51.508;7.018;2023-07-09T04:01:38;23.20;99.90
13998;DHT22;7074;51.508;7.018;2023-07-09T04:04:05;23.20;99.90
13998;DHT22;7074;51.508;7.018;2023-07-09T04:06:32;23.20;99.90
13998;DHT22;7074;51.508;7.018;2023-07-09T04:08:59;23.20;99.90
13998;DHT22;7074;51.508;7.018;2023-07-09T04:11:28;23.20;99.90
13998;DHT22;7074;51.508;7.018;2023-07-09T04:13:55;23.20;99.90
13998;DHT22;7074;51.508;7.018;2023-07-09T04:16:22;23.20;99.90
13998;DHT22;7074;51.508;7.018;2023-07-09T04:18:50;23.10;99.90
13998;DHT22;7074;51.508;7.018;2023-07-09T04:21:17;23.20;99.90
13998;DHT22;7074;51.508;7.018;2023-07-09T04:23:44;23.20;99.90
13998;DHT22;7074;51.508;7.018;2023-07-09T04:26:13;23.20;99.90
13998;DHT22;7074;51.508;7.018;2023-07-09T04:28:42;23.20;99.90
13998;DHT22;7074;51.508;7.018;2023-07-09T04:31:09;23.20;99.90
13998;DHT22;7074;51.508;7.018;2023-07-09T04:33:36;23.30;99.90
13998;DHT22;7074;51.508;7.018;2023-07-09T04:36:04;23.40;99.90
13998;DHT22;7074;51.508;7.018;2023-07-09T04:38:32;23.40;99.90
13998;DHT22;7074;51.508;7.018;2023-07-09T04:41:00;23.50;99.90
13998;DHT22;7074;51.508;7.018;2023-07-09T04:43:27;23.60;99.90
13998;DHT22;7074;51.508;7.018;2023-07-09T04:45:55;23.70;99.90
13998;DHT22;7074;51.508;7.018;2023-07-09T04:48:23;23.70;99.90
13998;DHT22;7074;51.508;7.018;2023-07-09T04:50:51;23.70;99.90
13998;DHT22;7074;51.508;7.018;2023-07-09T04:53:18;23.80;99.90
13998;DHT22;7074;51.508;7.018;2023-07-09T04:55:45;23.80;99.90
13998;DHT22;7074;51.508;7.018;2023-07-09T04:58:12;23.90;99.90
13998;DHT22;7074;51.508;7.018;2023-07-09T05:00:39;24.00;99.90
13998;DHT22;7074;51.508;7.018;2023-07-09T05:03:10;24.00;99.90
13998;DHT22;7074;51.508;7.018;2023-07-09T05:05:42;24.00;99.90
13998;DHT22;7074;51.508;7.018;2023-07-09T05:08:09;24.10;99.90
13998;DHT22;7074;51.508;7.018;2023-07-09T05:10:41;24.20;99.90
13998;DHT22;7074;51.508;7.018;2023-07-09T05:13:08;24.20;99.90
13998;DHT22;7074;51.508;7.018;2023-07-09T05:15:39;24.20;99.90
13998;DHT22;7074;51.508;7.018;2023-07-09T05:18:07;24.30;99.90
13998;DHT22;7074;51.508;7.018;2023-07-09T05:20:36;24.50;99.90
13998;DHT22;7074;51.508;7.018;2023-07-09T05:23:03;24.60;99.90
13998;DHT22;7074;51.508;7.018;2023-07-09T05:25:31;24.70;99.90
13998;DHT22;7074;51.508;7.018;2023-07-09T05:27:58;24.80;99.90
13998;DHT22;7074;51.508;7.018;2023-07-09T05:30:26;24.80;99.90
13998;DHT22;7074;51.508;7.018;2023-07-09T05:32:53;25.00;99.90
13998;DHT22;7074;51.508;7.018;2023-07-09T05:35:24;25.10;99.90
13998;DHT22;7074;51.508;7.018;2023-07-09T05:37:54;25.20;99.90
13998;DHT22;7074;51.508;7.018;2023-07-09T05:40:21;25.40;99.90
13998;DHT22;7074;51.508;7.018;2023-07-09T05:42:49;25.50;99.90
13998;DHT22;7074;51.508;7.018;2023-07-09T05:45:16;25.60;99.90
13998;DHT22;7074;51.508;7.018;2023-07-09T05:47:44;25.70;99.90
13998;DHT22;7074;51.508;7.018;2023-07-09T05:50:11;25.70;99.90
13998;DHT22;7074;51.508;7.018;2023-07-09T05:52:38;25.80;99.90
13998;DHT22;7074;51.508;7.018;2023-07-09T05:55:07;25.90;99.90
13998;DHT22;7074;51.508;7.018;2023-07-09T05:57:35;26.00;99.90
13998;DHT22;7074;51.508;7.018;2023-07-09T06:00:02;26.00;99.90
13998;DHT22;7074;51.508;7.018;2023-07-09T06:02:39;26.10;99.90
13998;DHT22;7074;51.508;7.018;2023-07-09T06:05:07;26.20;99.90
13998;DHT22;7074;51.508;7.018;2023-07-09T06:07:35;26.40;99.90
13998;DHT22;7074;51.508;7.018;2023-07-09T06:10:03;26.50;99.90
13998;DHT22;7074;51.508;7.018;2023-07-09T06:12:32;26.50;99.90
13998;DHT22;7074;51.508;7.018;2023-07-09T06:14:59;26.70;99.90
13998;DHT22;7074;51.508;7.018;2023-07-09T06:17:26;26.70;99.90
13998;DHT22;7074;51.508;7.018;2023-07-09T06:19:54;26.80;99.90
13998;DHT22;7074;51.508;7.018;2023-07-09T06:22:21;27.00;99.90
13998;DHT22;7074;51.508;7.018;2023-07-09T06:24:48;27.00;99.90
13998;DHT22;7074;51.508;7.018;2023-07-09T06:27:15;27.20;99.90
13998;DHT22;7074;51.508;7.018;2023-07-09T06:29:44;27.30;99.90
13998;DHT22;7074;51.508;7.018;2023-07-09T06:32:11;27.50;99.90
13998;DHT22;7074;51.508;7.018;2023-07-09T06:34:39;27.60;99.90
13998;DHT22;7074;51.508;7.018;2023-07-09T06:37:06;27.70;99.90
13998;DHT22;7074;51.508;7.018;2023-07-09T06:39:33;27.80;99.90
13998;DHT22;7074;51.508;7.018;2023-07-09T06:42:00;27.80;99.90
13998;DHT22;7074;51.508;7.018;2023-07-09T06:44:49;28.00;99.90
13998;DHT22;7074;51.508;7.018;2023-07-09T06:47:16;28.10;99.90
13998;DHT22;7074;51.508;7.018;2023-07-09T06:49:43;28.10;99.90
13998;DHT22;7074;51.508;7.018;2023-07-09T06:52:10;28.20;99.90
13998;DHT22;7074;51.508;7.018;2023-07-09T06:54:37;28.30;99.90
13998;DHT22;7074;51.508;7.018;2023-07-09T06:57:05;28.50;99.90
13998;DHT22;7074;51.508;7.018;2023-07-09T06:59:32;28.50;99.90
13998;DHT22;7074;51.508;7.018;2023-07-09T07:02:01;28.60;99.90
13998;DHT22;7074;51.508;7.018;2023-07-09T07:04:28;28.60;99.90
13998;DHT22;7074;51.508;7.018;2023-07-09T07:06:55;28.80;99.90
13998;DHT22;7074;51.508;7.018;2023-07-09T07:09:23;28.90;99.90
13998;DHT22;7074;51.508;7.018;2023-07-09T07:11:50;29.10;99.90
13998;DHT22;7074;51.508;7.018;2023-07-09T07:14:17;29.30;99.90
13998;DHT22;7074;51.508;7.018;2023-07-09T07:16:44;29.40;99.90
13998;DHT22;7074;51.508;7.018;2023-07-09T07:19:13;29.50;99.90
13998;DHT22;7074;51.508;7.018;2023-07-09T07:21:40;29.70;99.90
13998;DHT22;7074;51.508;7.018;2023-07-09T07:24:11;29.70;99.90
13998;DHT22;7074;51.508;7.018;2023-07-09T07:26:38;29.80;99.90
13998;DHT22;7074;51.508;7.018;2023-07-09T07:29:05;29.80;99.60
13998;DHT22;7074;51.508;7.018;2023-07-09T07:31:32;30.10;99.70
13998;DHT22;7074;51.508;7.018;2023-07-09T07:34:00;30.10;99.00
13998;DHT22;7074;51.508;7.018;2023-07-09T07:36:29;30.20;99.10
13998;DHT22;7074;51.508;7.018;2023-07-09T07:38:56;30.30;98.10
13998;DHT22;7074;51.508;7.018;2023-07-09T07:41:23;30.30;98.40
13998;DHT22;7074;51.508;7.018;2023-07-09T07:43:50;30.40;98.70
13998;DHT22;7074;51.508;7.018;2023-07-09T07:46:18;30.60;98.40
13998;DHT22;7074;51.508;7.018;2023-07-09T07:48:45;30.70;98.10
13998;DHT22;7074;51.508;7.018;2023-07-09T07:51:12;30.70;97.10
13998;DHT22;7074;51.508;7.018;2023-07-09T07:53:41;30.80;96.90
13998;DHT22;7074;51.508;7.018;2023-07-09T07:56:08;30.80;96.70
13998;DHT22;7074;51.508;7.018;2023-07-09T07:58:36;30.90;96.20
13998;DHT22;7074;51.508;7.018;2023-07-09T08:01:03;31.10;96.90
13998;DHT22;7074;51.508;7.018;2023-07-09T08:03:30;31.20;96.80
13998;DHT22;7074;51.508;7.018;2023-07-09T08:05:58;31.20;95.80
13998;DHT22;7074;51.508;7.018;2023-07-09T08:08:25;31.10;95.40
13998;DHT22;7074;51.508;7.018;2023-07-09T08:11:00;31.30;95.60
13998;DHT22;7074;51.508;7.018;2023-07-09T08:13:30;31.40;95.60
13998;DHT22;7074;51.508;7.018;2023-07-09T08:15:58;31.50;94.90
13998;DHT22;7074;51.508;7.018;2023-07-09T08:18:26;31.60;94.00
13998;DHT22;7074;51.508;7.018;2023-07-09T08:20:53;31.70;93.60
13998;DHT22;7074;51.508;7.018;2023-07-09T08:23:20;31.80;92.90
13998;DHT22;7074;51.508;7.018;2023-07-09T08:25:54;31.90;92.20
13998;DHT22;7074;51.508;7.018;2023-07-09T08:28:21;31.90;91.90
13998;DHT22;7074;51.508;7.018;2023-07-09T08:30:51;32.10;92.50
13998;DHT22;7074;51.508;7.018;2023-07-09T08:33:32;32.20;92.20
13998;DHT22;7074;51.508;7.018;2023-07-09T08:36:00;32.30;91.70
13998;DHT22;7074;51.508;7.018;2023-07-09T08:38:27;32.50;91.30
13998;DHT22;7074;51.508;7.018;2023-07-09T08:40:59;32.40;91.20
13998;DHT22;7074;51.508;7.018;2023-07-09T08:43:33;32.60;90.50
13998;DHT22;7074;51.508;7.018;2023-07-09T08:46:14;32.70;89.30
13998;DHT22;7074;51.508;7.018;2023-07-09T08:48:46;32.70;89.60
13998;DHT22;7074;51.508;7.018;2023-07-09T08:51:19;32.90;89.80
13998;DHT22;7074;51.508;7.018;2023-07-09T08:53:49;33.10;90.00
13998;DHT22;7074;51.508;7.018;2023-07-09T08:56:19;33.20;83.60
13998;DHT22;7074;51.508;7.018;2023-07-09T08:58:50;33.20;83.50
13998;DHT22;7074;51.508;7.018;2023-07-09T09:01:21;33.30;82.00
13998;DHT22;7074;51.508;7.018;2023-07-09T09:03:52;33.50;81.70
13998;DHT22;7074;51.508;7.018;2023-07-09T09:06:22;33.50;80.50
13998;DHT22;7074;51.508;7.018;2023-07-09T09:09:14;33.50;79.70
13998;DHT22;7074;51.508;7.018;2023-07-09T09:11:45;33.60;77.40
13998;DHT22;7074;51.508;7.018;2023-07-09T09:14:24;33.40;75.20
13998;DHT22;7074;51.508;7.018;2023-07-09T09:16:53;33.60;78.20
13998;DHT22;7074;51.508;7.018;2023-07-09T09:19:23;33.80;77.90
13998;DHT22;7074;51.508;7.018;2023-07-09T09:21:57;33.80;77.60
13998;DHT22;7074;51.508;7.018;2023-07-09T09:24:29;33.90;77.10
13998;DHT22;7074;51.508;7.018;2023-07-09T09:26:59;33.90;74.60
13998;DHT22;7074;51.508;7.018;2023-07-09T09:29:27;33.90;71.70
13998;DHT22;7074;51.508;7.018;2023-07-09T09:31:57;33.90;72.20
13998;DHT22;7074;51.508;7.018;2023-07-09T09:34:27;34.00;74.50
13998;DHT22;7074;51.508;7.018;2023-07-09T09:36:55;34.10;71.40
13998;DHT22;7074;51.508;7.018;2023-07-09T09:39:24;34.20;71.90
13998;DHT22;7074;51.508;7.018;2023-07-09T09:41:54;34.30;69.90
13998;DHT22;7074;51.508;7.018;2023-07-09T09:44:27;34.40;70.70
13998;DHT22;7074;51.508;7.018;2023-07-09T09:46:56;34.30;65.90
13998;DHT22;7074;51.508;7.018;2023-07-09T09:49:24;34.40;67.10
13998;DHT22;7074;51.508;7.018;2023-07-09T09:51:52;34.50;67.50
13998;DHT22;7074;51.508;7.018;2023-07-09T09:54:27;34.60;68.00
13998;DHT22;7074;51.508;7.018;2023-07-09T09:56:56;34.90;68.40
13998;DHT22;7074;51.508;7.018;2023-07-09T09:59:31;34.80;64.40
13998;DHT22;7074;51.508;7.018;2023-07-09T10:02:00;34.90;66.40
13998;DHT22;7074;51.508;7.018;2023-07-09T10:04:28;35.00;67.80
13998;DHT22;7074;51.508;7.018;2023-07-09T10:06:58;35.10;64.90
13998;DHT22;7074;51.508;7.018;2023-07-09T10:09:40;34.90;64.70
13998;DHT22;7074;51.508;7.018;2023-07-09T10:12:16;35.10;66.50
13998;DHT22;7074;51.508;7.018;2023-07-09T10:15:00;35.30;65.20
13998;DHT22;7074;51.508;7.018;2023-07-09T10:17:35;35.40;63.20
13998;DHT22;7074;51.508;7.018;2023-07-09T10:20:09;35.00;61.70
13998;DHT22;7074;51.508;7.018;2023-07-09T10:22:48;35.10;62.90
13998;DHT22;7074;51.508;7.018;2023-07-09T10:25:29;35.10;61.30
13998;DHT22;7074;51.508;7.018;2023-07-09T10:28:20;35.20;60.80
13998;DHT22;7074;51.508;7.018;2023-07-09T10:30:57;35.40;60.90
13998;DHT22;7074;51.508;7.018;2023-07-09T10:33:37;35.50;59.70
13998;DHT22;7074;51.508;7.018;2023-07-09T10:36:26;35.30;59.80
13998;DHT22;7074;51.508;7.018;2023-07-09T10:39:00;35.20;57.10
13998;DHT22;7074;51.508;7.018;2023-07-09T10:41:30;35.40;57.20
13998;DHT22;7074;51.508;7.018;2023-07-09T10:44:00;35.60;57.50
13998;DHT22;7074;51.508;7.018;2023-07-09T10:46:36;35.80;56.60
13998;DHT22;7074;51.508;7.018;2023-07-09T10:49:07;35.90;56.20
13998;DHT22;7074;51.508;7.018;2023-07-09T10:51:39;36.10;55.80
13998;DHT22;7074;51.508;7.018;2023-07-09T10:54:14;36.20;55.90
13998;DHT22;7074;51.508;7.018;2023-07-09T10:56:43;36.20;54.30
13998;DHT22;7074;51.508;7.018;2023-07-09T10:59:24;36.10;54.80
13998;DHT22;7074;51.508;7.018;2023-07-09T11:01:57;36.40;54.20
13998;DHT22;7074;51.508;7.018;2023-07-09T11:04:30;36.60;51.60
13998;DHT22;7074;51.508;7.018;2023-07-09T11:07:01;36.60;51.00
13998;DHT22;7074;51.508;7.018;2023-07-09T11:09:31;36.40;51.20
13998;DHT22;7074;51.508;7.018;2023-07-09T11:12:02;36.30;50.30
13998;DHT22;7074;51.508;7.018;2023-07-09T11:14:45;36.40;50.50
13998;DHT22;7074;51.508;7.018;2023-07-09T11:17:18;36.50;50.90
13998;DHT22;7074;51.508;7.018;2023-07-09T11:19:48;36.70;51.20
13998;DHT22;7074;51.508;7.018;2023-07-09T11:22:23;36.80;51.30
13998;DHT22;7074;51.508;7.018;2023-07-09T11:24:52;36.90;50.10
13998;DHT22;7074;51.508;7.018;2023-07-09T11:27:23;37.10;49.60
13998;DHT22;7074;51.508;7.018;2023-07-09T11:29:57;37.20;49.30
13998;DHT22;7074;51.508;7.018;2023-07-09T11:32:27;37.10;48.60
13998;DHT22;7074;51.508;7.018;2023-07-09T11:35:07;37.40;48.00
13998;DHT22;7074;51.508;7.018;2023-07-09T11:37:44;37.20;48.30
13998;DHT22;7074;51.508;7.018;2023-07-09T11:40:13;37.00;47.50
13998;DHT22;7074;51.508;7.018;2023-07-09T11:42:49;37.00;47.70
13998;DHT22;7074;51.508;7.018;2023-07-09T11:45:24;37.10;47.90
13998;DHT22;7074;51.508;7.018;2023-07-09T11:48:27;37.30;46.80
13998;DHT22;7074;51.508;7.018;2023-07-09T11:51:16;37.40;46.90
13998;DHT22;7074;51.508;7.018;2023-07-09T11:53:47;37.40;45.50
13998;DHT22;7074;51.508;7.018;2023-07-09T11:56:19;37.60;44.70
13998;DHT22;7074;51.508;7.018;2023-07-09T11:58:50;37.80;45.00
13998;DHT22;7074;51.508;7.018;2023-07-09T12:01:21;37.70;44.90
13998;DHT22;7074;51.508;7.018;2023-07-09T12:03:50;37.90;45.80
13998;DHT22;7074;51.508;7.018;2023-07-09T12:06:21;38.10;45.60
13998;DHT22;7074;51.508;7.018;2023-07-09T12:08:51;38.00;45.60
13998;DHT22;7074;51.508;7.018;2023-07-09T12:11:20;38.10;46.90
13998;DHT22;7074;51.508;7.018;2023-07-09T12:13:49;38.30;45.20
13998;DHT22;7074;51.508;7.018;2023-07-09T12:16:27;38.10;44.20
13998;DHT22;7074;51.508;7.018;2023-07-09T12:18:57;38.10;44.40
13998;DHT22;7074;51.508;7.018;2023-07-09T12:21:25;38.30;44.90
13998;DHT22;7074;51.508;7.018;2023-07-09T12:23:54;38.10;42.50
13998;DHT22;7074;51.508;7.018;2023-07-09T12:26:22;38.30;42.90
13998;DHT22;7074;51.508;7.018;2023-07-09T12:28:51;38.30;45.40
13998;DHT22;7074;51.508;7.018;2023-07-09T12:31:25;38.50;43.50
13998;DHT22;7074;51.508;7.018;2023-07-09T12:33:56;38.60;42.40
13998;DHT22;7074;51.508;7.018;2023-07-09T12:36:25;38.60;43.70
13998;DHT22;7074;51.508;7.018;2023-07-09T12:38:57;38.40;41.60
13998;DHT22;7074;51.508;7.018;2023-07-09T12:41:37;38.30;42.40
13998;DHT22;7074;51.508;7.018;2023-07-09T12:44:06;38.40;41.70
13998;DHT22;7074;51.508;7.018;2023-07-09T12:46:38;38.30;40.60
13998;DHT22;7074;51.508;7.018;2023-07-09T12:49:07;38.30;41.70
13998;DHT22;7074;51.508;7.018;2023-07-09T12:51:37;38.40;41.50
13998;DHT22;7074;51.508;7.018;2023-07-09T12:54:13;38.50;42.00
13998;DHT22;7074;51.508;7.018;2023-07-09T12:56:41;38.60;42.90
13998;DHT22;7074;51.508;7.018;2023-07-09T12:59:17;38.80;41.10
13998;DHT22;7074;51.508;7.018;2023-07-09T13:01:49;38.60;41.40
13998;DHT22;7074;51.508;7.018;2023-07-09T13:04:18;38.50;41.20
13998;DHT22;7074;51.508;7.018;2023-07-09T13:06:47;38.50;43.10
13998;DHT22;7074;51.508;7.018;2023-07-09T13:09:20;38.30;44.20
13998;DHT22;7074;51.508;7.018;2023-07-09T13:11:48;38.30;45.30
13998;DHT22;7074;51.508;7.018;2023-07-09T13:14:21;38.30;45.00
13998;DHT22;7074;51.508;7.018;2023-07-09T13:16:48;37.80;43.00
13998;DHT22;7074;51.508;7.018;2023-07-09T13:19:18;37.70;44.90
13998;DHT22;7074;51.508;7.018;2023-07-09T13:21:46;37.80;46.70
13998;DHT22;7074;51.508;7.018;2023-07-09T13:24:16;37.80;44.70
13998;DHT22;7074;51.508;7.018;2023-07-09T13:26:44;37.80;45.60
13998;DHT22;7074;51.508;7.018;2023-07-09T13:29:18;37.60;44.00
13998;DHT22;7074;51.508;7.018;2023-07-09T13:31:46;37.60;44.80
13998;DHT22;7074;51.508;7.018;2023-07-09T13:34:20;37.50;46.90
13998;DHT22;7074;51.508;7.018;2023-07-09T13:36:48;37.50;45.70
13998;DHT22;7074;51.508;7.018;2023-07-09T13:39:16;37.50;47.30
13998;DHT22;7074;51.508;7.018;2023-07-09T13:41:45;37.40;50.80
13998;DHT22;7074;51.508;7.018;2023-07-09T13:44:16;37.30;50.50
13998;DHT22;7074;51.508;7.018;2023-07-09T13:46:44;37.20;48.20
13998;DHT22;7074;51.508;7.018;2023-07-09T13:49:14;37.20;50.20
13998;DHT22;7074;51.508;7.018;2023-07-09T13:51:46;36.80;45.00
13998;DHT22;7074;51.508;7.018;2023-07-09T13:54:17;36.70;47.50
13998;DHT22;7074;51.508;7.018;2023-07-09T13:56:45;36.50;46.30
13998;DHT22;7074;51.508;7.018;2023-07-09T13:59:15;36.40;47.40
13998;DHT22;7074;51.508;7.018;2023-07-09T14:01:43;36.20;49.50
13998;DHT22;7074;51.508;7.018;2023-07-09T14:04:12;36.00;53.60
13998;DHT22;7074;51.508;7.018;2023-07-09T14:06:40;35.90;54.50
13998;DHT22;7074;51.508;7.018;2023-07-09T14:09:10;35.90;53.50
13998;DHT22;7074;51.508;7.018;2023-07-09T14:11:48;35.80;56.10
13998;DHT22;7074;51.508;7.018;2023-07-09T14:14:21;35.70;56.90
13998;DHT22;7074;51.508;7.018;2023-07-09T14:16:50;35.60;57.70
13998;DHT22;7074;51.508;7.018;2023-07-09T14:19:20;35.50;58.40
13998;DHT22;7074;51.508;7.018;2023-07-09T14:21:48;35.40;61.50
13998;DHT22;7074;51.508;7.018;2023-07-09T14:24:20;35.10;65.70
13998;DHT22;7074;51.508;7.018;2023-07-09T14:26:48;34.80;66.90
13998;DHT22;7074;51.508;7.018;2023-07-09T14:29:16;34.20;64.80
13998;DHT22;7074;51.508;7.018;2023-07-09T14:31:45;33.70;70.90
13998;DHT22;7074;51.508;7.018;2023-07-09T14:34:19;33.00;71.40
13998;DHT22;7074;51.508;7.018;2023-07-09T14:36:48;32.10;73.50
13998;DHT22;7074;51.508;7.018;2023-07-09T14:39:17;31.20;87.30
13998;DHT22;7074;51.508;7.018;2023-07-09T14:41:45;30.50;96.20
13998;DHT22;7074;51.508;7.018;2023-07-09T14:44:22;29.70;99.90
13998;DHT22;7074;51.508;7.018;2023-07-09T14:46:49;29.00;99.90
13998;DHT22;7074;51.508;7.018;2023-07-09T14:49:18;28.40;99.90
13998;DHT22;7074;51.508;7.018;2023-07-09T14:51:45;28.20;99.90
13998;DHT22;7074;51.508;7.018;2023-07-09T14:54:26;27.80;99.90
13998;DHT22;7074;51.508;7.018;2023-07-09T14:56:55;27.30;99.90
13998;DHT22;7074;51.508;7.018;2023-07-09T14:59:24;26.70;99.90
13998;DHT22;7074;51.508;7.018;2023-07-09T15:01:53;25.80;99.90
13998;DHT22;7074;51.508;7.018;2023-07-09T15:04:28;25.60;99.90
13998;DHT22;7074;51.508;7.018;2023-07-09T15:06:56;25.60;99.90
13998;DHT22;7074;51.508;7.018;2023-07-09T15:09:26;25.90;99.90
13998;DHT22;7074;51.508;7.018;2023-07-09T15:11:55;26.00;99.90
13998;DHT22;7074;51.508;7.018;2023-07-09T15:14:24;26.00;99.90
13998;DHT22;7074;51.508;7.018;2023-07-09T15:16:52;25.90;99.90
13998;DHT22;7074;51.508;7.018;2023-07-09T15:19:22;25.90;99.90
13998;DHT22;7074;51.508;7.018;2023-07-09T15:21:50;25.80;99.90
13998;DHT22;7074;51.508;7.018;2023-07-09T15:24:21;25.70;99.90
13998;DHT22;7074;51.508;7.018;2023-07-09T15:26:53;25.70;99.90
13998;DHT22;7074;51.508;7.018;2023-07-09T15:29:22;25.60;99.90
13998;DHT22;7074;51.508;7.018;2023-07-09T15:31:50;25.60;99.90
13998;DHT22;7074;51.508;7.018;2023-07-09T15:34:17;25.60;99.90
13998;DHT22;7074;51.508;7.018;2023-07-09T15:36:46;25.60;99.90
13998;DHT22;7074;51.508;7.018;2023-07-09T15:39:15;25.50;99.90
13998;DHT22;7074;51.508;7.018;2023-07-09T15:41:43;25.50;99.90
13998;DHT22;7074;51.508;7.018;2023-07-09T15:44:13;25.40;99.90
13998;DHT22;7074;51.508;7.018;2023-07-09T15:46:47;25.30;99.90
13998;DHT22;7074;51.508;7.018;2023-07-09T15:49:16;25.10;99.90
13998;DHT22;7074;51.508;7.018;2023-07-09T15:51:43;24.80;99.90
13998;DHT22;7074;51.508;7.018;2023-07-09T15:54:14;24.90;99.90
13998;DHT22;7074;51.508;7.018;2023-07-09T15:56:43;24.70;99.90
13998;DHT22;7074;51.508;7.018;2023-07-09T15:59:24;24.40;99.90
13998;DHT22;7074;51.508;7.018;2023-07-09T16:01:52;24.40;99.90